createdAt,value
2023-07-04T00:01:33.663Z,28.00
2023-07-04T00:04:06.315Z,30.10
2023-07-04T00:06:38.062Z,27.63
2023-07-04T00:09:06.896Z,28.60
2023-07-04T00:11:35.463Z,28.70
2023-07-04T00:14:04.780Z,28.52
2023-07-04T00:16:33.502Z,29.20
2023-07-04T00:19:05.177Z,28.13
2023-07-04T00:21:34.243Z,27.98
2023-07-04T00:24:03.411Z,28.00
2023-07-04T00:26:32.113Z,22.95
2023-07-04T00:29:00.755Z,20.45
2023-07-04T00:31:30.761Z,20.73
2023-07-04T00:33:59.306Z,22.55
2023-07-04T00:36:30.646Z,24.23
2023-07-04T00:38:59.310Z,25.08
2023-07-04T00:41:29.795Z,24.55
2023-07-04T00:44:00.982Z,24.98
2023-07-04T00:46:40.595Z,26.50
2023-07-04T00:49:19.646Z,27.10
2023-07-04T00:52:01.710Z,27.10
2023-07-04T00:54:35.993Z,27.35
2023-07-04T00:57:08.215Z,27.05
2023-07-04T00:59:44.503Z,27.23
2023-07-04T01:02:13.913Z,28.85
2023-07-04T01:04:43.014Z,28.63
2023-07-04T01:07:22.570Z,27.95
2023-07-04T01:09:56.874Z,28.00
2023-07-04T01:12:31.174Z,27.65
2023-07-04T01:15:01.559Z,27.75
2023-07-04T01:17:30.514Z,28.48
2023-07-04T01:19:59.853Z,29.35
2023-07-04T01:22:34.925Z,28.77
2023-07-04T01:25:12.270Z,28.67
2023-07-04T01:27:44.485Z,29.65
2023-07-04T01:30:15.011Z,28.38
2023-07-04T01:32:44.873Z,29.88
2023-07-04T01:35:15.330Z,29.25
2023-07-04T01:37:44.195Z,30.25
2023-07-04T01:40:14.252Z,29.77
2023-07-04T01:42:44.086Z,30.70
2023-07-04T01:45:13.602Z,30.67
2023-07-04T01:47:42.692Z,30.48
2023-07-04T01:50:13.769Z,30.83
2023-07-04T01:52:43.324Z,30.20
2023-07-04T01:55:13.557Z,29.52
2023-07-04T01:57:44.430Z,30.85
2023-07-04T02:00:14.920Z,28.70
2023-07-04T02:02:44.557Z,28.63
2023-07-04T02:05:13.900Z,29.05
2023-07-04T02:07:42.582Z,28.67
2023-07-04T02:10:11.752Z,28.08
2023-07-04T02:12:40.198Z,27.95
2023-07-04T02:15:11.042Z,29.77
2023-07-04T02:17:39.943Z,32.13
2023-07-04T02:20:09.770Z,32.92
2023-07-04T02:22:38.588Z,33.50
2023-07-04T02:25:07.798Z,33.60
2023-07-04T02:27:36.553Z,34.47
2023-07-04T02:30:05.348Z,33.42
2023-07-04T02:32:35.452Z,34.00
2023-07-04T02:35:04.172Z,35.03
2023-07-04T02:37:32.741Z,34.05
2023-07-04T02:40:02.728Z,32.10
2023-07-04T02:42:31.402Z,32.60
2023-07-04T02:45:00.421Z,32.58
2023-07-04T02:47:29.271Z,31.20
2023-07-04T02:49:59.581Z,29.73
2023-07-04T02:52:28.331Z,28.40
2023-07-04T02:54:56.779Z,25.80
2023-07-04T02:57:25.905Z,26.13
2023-07-04T02:59:54.756Z,23.95
2023-07-04T03:02:24.717Z,23.55
2023-07-04T03:04:53.743Z,24.80
2023-07-04T03:07:23.587Z,23.52
2023-07-04T03:09:52.282Z,23.58
2023-07-04T03:12:20.888Z,22.85
2023-07-04T03:14:49.533Z,25.35
2023-07-04T03:17:18.086Z,24.25
2023-07-04T03:19:46.698Z,23.83
2023-07-04T03:22:15.051Z,24.25
2023-07-04T03:24:45.045Z,24.42
2023-07-04T03:27:13.675Z,22.50
2023-07-04T03:29:42.439Z,24.00
2023-07-04T03:32:11.120Z,25.30
2023-07-04T03:34:39.626Z,25.73
2023-07-04T03:37:08.219Z,27.73
2023-07-04T03:39:36.955Z,28.83
2023-07-04T03:42:08.101Z,28.55
2023-07-04T03:44:40.876Z,30.35
2023-07-04T03:47:09.721Z,30.15
2023-07-04T03:49:38.140Z,28.92
2023-07-04T03:54:56.920Z,30.25
2023-07-04T03:57:26.630Z,30.52
2023-07-04T03:59:55.029Z,31.05
2023-07-04T04:02:23.734Z,30.33
2023-07-04T04:04:52.618Z,29.98
2023-07-04T04:07:21.304Z,29.73
2023-07-04T04:09:50.017Z,29.70
2023-07-04T04:12:18.726Z,33.17
2023-07-04T04:14:48.475Z,32.40
2023-07-04T04:17:16.964Z,34.38
2023-07-04T04:19:45.669Z,34.88
2023-07-04T04:22:14.360Z,37.88
2023-07-04T04:24:42.966Z,37.75
2023-07-04T04:27:14.039Z,37.88
2023-07-04T04:29:42.726Z,36.47
2023-07-04T04:32:12.615Z,36.22
2023-07-04T04:34:41.693Z,36.78
2023-07-04T04:37:10.293Z,33.80
2023-07-04T04:39:39.811Z,32.60
2023-07-04T04:42:15.605Z,30.58
2023-07-04T04:44:44.577Z,30.98
2023-07-04T04:47:14.602Z,26.50
2023-07-04T04:49:43.162Z,27.00
2023-07-04T04:52:13.535Z,27.13
2023-07-04T04:54:42.572Z,29.00
2023-07-04T04:57:11.397Z,28.35
2023-07-04T04:59:39.920Z,28.13
2023-07-04T05:02:10.295Z,28.95
2023-07-04T05:04:40.122Z,31.55
2023-07-04T05:07:09.007Z,35.15
2023-07-04T05:09:37.602Z,35.42
2023-07-04T05:12:06.523Z,35.47
2023-07-04T05:14:35.072Z,34.42
2023-07-04T05:17:04.177Z,34.42
2023-07-04T05:19:32.972Z,36.25
2023-07-04T05:22:03.109Z,37.53
2023-07-04T05:24:33.110Z,37.35
2023-07-04T05:27:01.873Z,38.63
2023-07-04T05:29:30.432Z,36.72
2023-07-04T05:31:59.007Z,38.15
2023-07-04T05:34:27.735Z,38.42
2023-07-04T05:36:56.807Z,37.97
2023-07-04T05:39:27.002Z,36.53
2023-07-04T05:41:55.561Z,31.27
2023-07-04T05:44:24.196Z,28.38
2023-07-04T05:46:54.888Z,28.80
2023-07-04T05:49:23.655Z,29.95
2023-07-04T05:51:52.360Z,28.40
2023-07-04T05:54:20.817Z,31.20
2023-07-04T05:56:54.229Z,29.25
2023-07-04T05:59:22.829Z,28.10
2023-07-04T06:01:52.634Z,28.58
2023-07-04T06:04:21.687Z,28.92
2023-07-04T06:06:53.828Z,32.20
2023-07-04T06:09:24.094Z,31.60
2023-07-04T06:11:54.590Z,32.35
2023-07-04T06:14:28.978Z,31.35
2023-07-04T06:16:58.439Z,33.47
2023-07-04T06:19:40.953Z,34.58
2023-07-04T06:22:09.474Z,35.30
2023-07-04T06:24:38.401Z,35.13
2023-07-04T06:27:09.305Z,37.03
2023-07-04T06:29:39.792Z,36.33
2023-07-04T06:32:09.259Z,36.53
2023-07-04T06:34:37.807Z,35.22
2023-07-04T06:37:06.771Z,35.97
2023-07-04T06:39:35.415Z,35.17
2023-07-04T06:42:08.871Z,34.85
2023-07-04T06:44:37.429Z,33.97
2023-07-04T06:47:06.182Z,32.85
2023-07-04T06:49:34.911Z,31.38
2023-07-04T06:52:03.781Z,33.50
2023-07-04T06:57:05.834Z,31.90
2023-07-04T06:59:35.640Z,34.45
2023-07-04T07:02:04.451Z,33.97
2023-07-04T07:04:33.175Z,34.17
2023-07-04T07:07:02.016Z,36.00
2023-07-04T07:09:31.769Z,37.25
2023-07-04T07:12:00.611Z,36.83
2023-07-04T07:14:30.618Z,37.10
2023-07-04T07:17:01.804Z,35.13
2023-07-04T07:19:31.348Z,33.22
2023-07-04T07:22:01.459Z,29.90
2023-07-04T07:24:30.678Z,27.92
2023-07-04T07:26:59.691Z,27.80
2023-07-04T07:29:28.628Z,29.23
2023-07-04T07:31:57.193Z,27.90
2023-07-04T07:34:27.022Z,27.15
2023-07-04T07:36:55.646Z,24.90
2023-07-04T07:39:24.206Z,23.50
2023-07-04T07:41:52.701Z,23.80
2023-07-04T07:44:21.342Z,18.90
2023-07-04T07:46:53.239Z,20.27
2023-07-04T07:49:22.057Z,17.88
2023-07-04T07:51:51.806Z,16.30
2023-07-04T07:54:20.533Z,15.60
2023-07-04T07:56:49.811Z,24.60
2023-07-04T07:59:19.991Z,22.13
2023-07-04T08:01:49.081Z,15.88
2023-07-04T08:04:17.769Z,17.25
2023-07-04T08:06:48.510Z,21.92
2023-07-04T08:09:21.452Z,15.55
2023-07-04T08:11:50.979Z,18.70
2023-07-04T08:14:20.414Z,18.63
2023-07-04T08:16:50.609Z,20.02
2023-07-04T08:19:21.088Z,18.55
2023-07-04T08:21:50.029Z,22.00
2023-07-04T08:24:22.630Z,25.70
2023-07-04T08:26:55.672Z,20.27
2023-07-04T08:29:24.544Z,16.17
2023-07-04T08:31:53.100Z,23.08
2023-07-04T08:34:21.739Z,12.88
2023-07-04T08:36:50.446Z,15.10
2023-07-04T08:39:20.194Z,7.78
2023-07-04T08:41:54.544Z,6.53
2023-07-04T08:44:24.880Z,3.85
2023-07-04T08:46:56.627Z,2.50
2023-07-04T08:49:35.648Z,3.35
2023-07-04T08:52:08.915Z,2.65
2023-07-04T08:54:39.460Z,2.55
2023-07-04T08:57:19.649Z,2.92
2023-07-04T08:59:53.775Z,2.28
2023-07-04T09:02:46.744Z,2.90
2023-07-04T09:05:20.038Z,2.20
2023-07-04T09:07:55.043Z,2.60
2023-07-04T09:10:34.540Z,3.50
2023-07-04T09:13:07.861Z,2.40
2023-07-04T09:15:39.049Z,2.15
2023-07-04T09:18:23.167Z,2.65
2023-07-04T09:20:58.394Z,2.50
2023-07-04T09:23:27.105Z,2.85
2023-07-04T09:25:59.037Z,2.78
2023-07-04T09:28:32.102Z,2.42
2023-07-04T09:31:03.333Z,2.53
2023-07-04T09:33:32.863Z,1.80
2023-07-04T09:36:03.042Z,1.92
2023-07-04T09:38:52.860Z,2.28
2023-07-04T09:41:22.801Z,2.95
2023-07-04T09:43:51.824Z,2.65
2023-07-04T09:46:25.386Z,2.03
2023-07-04T09:48:54.211Z,2.30
2023-07-04T09:51:26.940Z,3.20
2023-07-04T09:54:14.614Z,2.33
2023-07-04T09:56:46.753Z,2.50
2023-07-04T09:59:18.151Z,2.58
2023-07-04T10:01:48.857Z,2.10
2023-07-04T10:04:35.499Z,2.30
2023-07-04T10:07:05.542Z,3.45
2023-07-04T10:09:35.062Z,2.33
2023-07-04T10:12:12.973Z,2.50
2023-07-04T10:14:48.902Z,2.65
2023-07-04T10:17:21.296Z,2.85
2023-07-04T10:19:50.935Z,2.17
2023-07-04T10:22:26.888Z,2.45
2023-07-04T10:24:57.099Z,2.95
2023-07-04T10:27:32.984Z,2.28
2023-07-04T10:30:05.177Z,2.17
2023-07-04T10:32:41.458Z,2.08
2023-07-04T10:35:15.025Z,2.50
2023-07-04T10:37:45.485Z,2.45
2023-07-04T10:40:17.252Z,2.55
2023-07-04T10:42:54.971Z,2.47
2023-07-04T10:45:25.882Z,2.10
2023-07-04T10:47:56.636Z,2.22
2023-07-04T10:50:28.879Z,2.58
2023-07-04T10:52:57.395Z,2.47
2023-07-04T10:55:35.130Z,1.90
2023-07-04T10:58:11.530Z,2.15
2023-07-04T11:00:43.725Z,2.05
2023-07-04T11:03:18.266Z,2.20
2023-07-04T11:05:50.719Z,2.38
2023-07-04T11:08:22.364Z,2.17
2023-07-04T11:10:55.108Z,2.83
2023-07-04T11:13:26.635Z,2.22
2023-07-04T11:15:58.217Z,2.00
2023-07-04T11:18:35.452Z,2.15
2023-07-04T11:21:12.214Z,1.80
2023-07-04T11:23:50.316Z,2.40
2023-07-04T11:26:19.228Z,1.95
2023-07-04T11:28:53.931Z,1.92
2023-07-04T11:31:26.609Z,1.73
2023-07-04T11:34:13.064Z,2.03
2023-07-04T11:36:51.400Z,2.58
2023-07-04T11:39:32.891Z,2.40
2023-07-04T11:42:13.074Z,2.13
2023-07-04T11:44:52.496Z,1.67
2023-07-04T11:47:42.419Z,2.10
2023-07-04T11:51:12.520Z,1.80
2023-07-04T11:53:47.030Z,1.73
2023-07-04T11:56:43.912Z,2.33
2023-07-04T11:59:38.689Z,1.80
2023-07-04T12:02:29.245Z,2.22
2023-07-04T12:04:59.042Z,2.00
2023-07-04T12:07:44.303Z,2.30
2023-07-04T12:10:18.479Z,1.50
2023-07-04T12:12:48.273Z,2.70
2023-07-04T12:15:24.095Z,2.05
2023-07-04T12:17:56.077Z,2.03
2023-07-04T12:20:24.820Z,2.20
2023-07-04T12:22:55.354Z,2.40
2023-07-04T12:25:26.089Z,2.08
2023-07-04T12:27:57.536Z,2.05
2023-07-04T12:30:38.861Z,2.15
2023-07-04T12:33:21.941Z,2.20
2023-07-04T12:35:56.334Z,1.98
2023-07-04T12:38:27.511Z,2.25
2023-07-04T12:40:59.111Z,2.40
2023-07-04T12:51:38.327Z,2.50
2023-07-04T12:54:22.461Z,1.92
2023-07-04T12:56:51.414Z,1.90
2023-07-04T12:59:38.985Z,2.22
2023-07-04T13:02:20.587Z,2.20
2023-07-04T13:04:50.992Z,2.05
2023-07-04T13:07:37.118Z,1.65
2023-07-04T13:10:05.945Z,2.05
2023-07-04T13:12:36.906Z,1.92
2023-07-04T13:15:20.222Z,2.05
2023-07-04T13:18:06.900Z,2.00
2023-07-04T13:20:40.223Z,1.80
2023-07-04T13:25:58.175Z,2.65
2023-07-04T13:34:20.469Z,1.65
2023-07-04T13:36:53.957Z,1.95
2023-07-04T13:39:50.860Z,2.10
2023-07-04T13:42:18.873Z,1.95
2023-07-04T13:47:20.279Z,1.83
2023-07-04T13:49:49.160Z,2.30
2023-07-04T13:52:20.667Z,2.50
2023-07-04T13:54:49.415Z,2.28
2023-07-04T13:57:17.974Z,2.05
2023-07-04T13:59:50.208Z,2.05
2023-07-04T14:07:26.607Z,2.10
2023-07-04T14:09:55.433Z,1.98
2023-07-04T14:12:29.825Z,2.08
2023-07-04T14:17:33.374Z,2.00
2023-07-04T14:20:18.880Z,1.80
2023-07-04T14:22:50.100Z,1.95
2023-07-04T14:25:18.776Z,2.03
2023-07-04T14:27:47.221Z,2.05
2023-07-04T14:30:16.334Z,1.88
2023-07-04T14:32:45.071Z,2.00
2023-07-04T14:35:14.161Z,2.30
2023-07-04T14:37:42.621Z,2.10
2023-07-04T14:42:49.240Z,2.28
2023-07-04T14:45:18.153Z,2.30
2023-07-04T14:47:46.909Z,2.45
2023-07-04T14:50:15.947Z,2.53
2023-07-04T14:52:44.556Z,2.20
2023-07-04T14:55:14.455Z,2.50
2023-07-04T14:57:45.957Z,2.78
2023-07-04T15:00:17.463Z,2.60
2023-07-04T15:02:47.656Z,2.97
2023-07-04T15:05:16.542Z,2.63
2023-07-04T15:07:45.432Z,2.97
2023-07-04T15:10:16.634Z,2.95
2023-07-04T15:12:46.083Z,2.72
2023-07-04T15:15:15.080Z,2.83
2023-07-04T15:17:43.951Z,3.22
2023-07-04T15:20:15.085Z,2.80
2023-07-04T15:22:43.591Z,3.45
2023-07-04T15:25:12.559Z,3.22
2023-07-04T15:27:43.063Z,3.30
2023-07-04T15:30:12.896Z,3.20
2023-07-04T15:32:42.199Z,3.45
2023-07-04T15:37:40.379Z,3.10
2023-07-04T15:40:10.050Z,3.00
2023-07-04T15:42:38.577Z,3.17
2023-07-04T15:45:09.165Z,3.20
2023-07-04T15:47:37.888Z,3.20
2023-07-04T15:50:06.821Z,3.40
2023-07-04T15:52:35.620Z,3.55
2023-07-04T15:55:04.165Z,3.15
2023-07-04T15:57:32.775Z,3.00
2023-07-04T16:00:01.650Z,3.00
2023-07-04T16:02:31.379Z,3.70
2023-07-04T16:04:59.973Z,3.53
2023-07-04T16:07:30.633Z,3.50
2023-07-04T16:09:59.434Z,3.00
2023-07-04T16:12:28.216Z,2.90
2023-07-04T16:14:56.898Z,3.20
2023-07-04T16:17:25.581Z,3.30
2023-07-04T16:19:55.387Z,3.47
2023-07-04T16:22:24.275Z,2.90
2023-07-04T16:24:56.083Z,2.90
2023-07-04T16:27:24.608Z,3.08
2023-07-04T16:29:53.444Z,3.00
2023-07-04T16:32:27.216Z,3.10
2023-07-04T16:34:57.408Z,3.35
2023-07-04T16:37:30.794Z,3.13
2023-07-04T16:40:05.141Z,3.35
2023-07-04T16:42:34.920Z,3.22
2023-07-04T16:45:26.070Z,3.20
2023-07-04T16:48:23.856Z,2.75
2023-07-04T16:51:08.103Z,3.63
2023-07-04T16:53:56.696Z,3.47
2023-07-04T16:56:28.891Z,3.00
2023-07-04T16:58:58.127Z,3.40
2023-07-04T17:01:26.976Z,2.65
2023-07-04T17:04:03.981Z,3.30
2023-07-04T17:06:41.733Z,3.15
2023-07-04T17:09:18.813Z,3.00
2023-07-04T17:11:49.014Z,3.10
2023-07-04T17:14:18.056Z,3.55
2023-07-04T17:16:46.957Z,3.20
2023-07-04T17:19:17.229Z,3.45
2023-07-04T17:21:47.731Z,3.17
2023-07-04T17:24:19.612Z,2.97
2023-07-04T17:26:58.389Z,3.30
2023-07-04T17:29:28.774Z,3.20
2023-07-04T17:32:30.118Z,2.90
2023-07-04T18:17:20.240Z,2.67
2023-07-04T18:23:38.991Z,3.20
2023-07-04T18:26:09.984Z,3.10
2023-07-04T18:28:44.016Z,3.40
2023-07-04T18:31:16.340Z,2.75
2023-07-04T18:33:48.692Z,3.00
2023-07-04T18:36:29.207Z,3.25
2023-07-04T18:39:09.416Z,3.00
2023-07-04T18:41:42.679Z,3.50
2023-07-04T18:44:13.833Z,3.08
2023-07-04T18:46:47.132Z,3.08
2023-07-04T18:49:25.679Z,3.20
2023-07-04T18:52:02.121Z,3.00
2023-07-04T18:54:32.395Z,3.33
2023-07-04T18:57:04.025Z,3.30
2023-07-04T18:59:32.965Z,3.15
2023-07-04T19:02:02.276Z,3.00
2023-07-04T19:04:35.451Z,3.03
2023-07-04T19:07:15.126Z,3.47
2023-07-04T19:09:55.517Z,3.38
2023-07-04T19:12:29.597Z,3.53
2023-07-04T19:15:26.193Z,3.80
2023-07-04T19:29:33.915Z,3.75
2023-07-04T19:32:27.481Z,3.28
2023-07-04T19:34:56.243Z,3.78
2023-07-04T19:37:25.022Z,3.65
2023-07-04T19:39:53.624Z,3.28
2023-07-04T19:42:22.207Z,3.70
2023-07-04T19:44:52.046Z,4.15
2023-07-04T19:47:21.879Z,3.80
2023-07-04T19:49:50.746Z,3.90
2023-07-04T19:52:19.451Z,3.75
2023-07-04T19:54:48.059Z,4.05
2023-07-04T19:57:16.725Z,3.88
2023-07-04T19:59:45.320Z,4.45
2023-07-04T20:02:15.381Z,4.00
2023-07-04T20:04:47.552Z,4.28
2023-07-04T20:07:16.176Z,4.47
2023-07-04T20:09:47.334Z,4.28
2023-07-04T20:12:16.118Z,4.40
2023-07-04T20:14:45.585Z,4.90
2023-07-04T20:17:15.570Z,5.18
2023-07-04T20:19:44.525Z,4.80
2023-07-04T20:22:13.465Z,5.72
2023-07-04T20:24:42.338Z,6.40
2023-07-04T20:27:11.074Z,10.32
2023-07-04T20:29:39.714Z,9.85
2023-07-04T20:32:10.027Z,12.23
2023-07-04T20:34:39.944Z,18.45
2023-07-04T20:37:08.864Z,21.48
2023-07-04T20:39:40.277Z,32.25
2023-07-04T20:42:10.652Z,32.03
2023-07-04T20:44:39.589Z,30.48
2023-07-04T22:58:52.940Z,47.75
2023-07-04T23:01:23.876Z,46.65
2023-07-04T23:03:52.345Z,48.05
2023-07-04T23:06:21.279Z,46.80
2023-07-04T23:08:50.171Z,48.28
2023-07-04T23:11:20.702Z,49.75
2023-07-04T23:13:49.443Z,49.70
2023-07-04T23:16:21.210Z,49.60
2023-07-04T23:18:51.110Z,46.70
2023-07-04T23:21:23.189Z,47.38
2023-07-04T23:23:52.715Z,47.33
2023-07-04T23:26:24.688Z,47.15
2023-07-04T23:28:53.269Z,47.50
2023-07-04T23:31:23.480Z,47.58
2023-07-04T23:33:52.097Z,46.13
2023-07-04T23:36:21.884Z,44.38
2023-07-04T23:38:51.088Z,43.72
2023-07-04T23:41:19.810Z,45.10
2023-07-04T23:43:48.797Z,43.65
2023-07-04T23:46:17.587Z,44.33
2023-07-04T23:48:49.169Z,45.10
2023-07-04T23:51:23.993Z,43.90
2023-07-04T23:54:07.992Z,43.95
2023-07-04T23:56:37.758Z,43.53
2023-07-04T23:59:07.083Z,44.40
